sensor_id;sensor_type;location;lat;lon;timestamp;temperature;humidity
32476;DHT22;18929;48.008;10.882;2023-05-08T00:01:54;17.60;99.90
32476;DHT22;18929;48.008;10.882;2023-05-08T00:04:23;18.20;99.90
32476;DHT22;18929;48.008;10.882;2023-05-08T00:06:50;18.50;99.90
32476;DHT22;18929;48.008;10.882;2023-05-08T00:09:17;18.70;99.90
32476;DHT22;18929;48.008;10.882;2023-05-08T00:11:44;18.60;99.90
32476;DHT22;18929;48.008;10.882;2023-05-08T00:14:11;18.50;99.90
32476;DHT22;18929;48.008;10.882;2023-05-08T00:16:37;18.50;99.90
32476;DHT22;18929;48.008;10.882;2023-05-08T00:19:04;18.40;99.90
32476;DHT22;18929;48.008;10.882;2023-05-08T00:21:34;18.40;99.90
32476;DHT22;18929;48.008;10.882;2023-05-08T00:24:01;18.40;99.90
32476;DHT22;18929;48.008;10.882;2023-05-08T00:26:28;18.40;99.90
32476;DHT22;18929;48.008;10.882;2023-05-08T00:28:54;18.40;99.90
32476;DHT22;18929;48.008;10.882;2023-05-08T00:31:21;18.30;99.90
32476;DHT22;18929;48.008;10.882;2023-05-08T00:33:48;18.30;99.90
32476;DHT22;18929;48.008;10.882;2023-05-08T00:36:15;18.30;99.90
32476;DHT22;18929;48.008;10.882;2023-05-08T00:38:43;18.20;99.90
32476;DHT22;18929;48.008;10.882;2023-05-08T00:41:10;18.20;99.90
32476;DHT22;18929;48.008;10.882;2023-05-08T00:43:37;18.30;99.90
32476;DHT22;18929;48.008;10.882;2023-05-08T00:46:04;18.00;99.90
32476;DHT22;18929;48.008;10.882;2023-05-08T00:48:32;18.40;99.90
32476;DHT22;18929;48.008;10.882;2023-05-08T00:51:01;18.50;99.90
32476;DHT22;18929;48.008;10.882;2023-05-08T00:53:29;18.40;99.90
32476;DHT22;18929;48.008;10.882;2023-05-08T00:55:59;18.50;99.90
32476;DHT22;18929;48.008;10.882;2023-05-08T00:58:26;18.50;99.90
32476;DHT22;18929;48.008;10.882;2023-05-08T01:00:54;18.30;99.90
32476;DHT22;18929;48.008;10.882;2023-05-08T01:03:21;18.20;99.90
32476;DHT22;18929;48.008;10.882;2023-05-08T01:05:48;18.40;99.90
32476;DHT22;18929;48.008;10.882;2023-05-08T01:08:15;18.40;99.90
32476;DHT22;18929;48.008;10.882;2023-05-08T01:10:44;18.30;99.90
32476;DHT22;18929;48.008;10.882;2023-05-08T01:13:15;18.10;99.90
32476;DHT22;18929;48.008;10.882;2023-05-08T01:15:46;18.10;99.90
32476;DHT22;18929;48.008;10.882;2023-05-08T01:18:15;18.00;99.90
32476;DHT22;18929;48.008;10.882;2023-05-08T01:20:44;18.10;99.90
32476;DHT22;18929;48.008;10.882;2023-05-08T01:26:07;17.90;99.90
32476;DHT22;18929;48.008;10.882;2023-05-08T01:29:02;17.80;99.90
32476;DHT22;18929;48.008;10.882;2023-05-08T01:31:37;17.90;99.90
32476;DHT22;18929;48.008;10.882;2023-05-08T01:34:10;18.00;99.90
32476;DHT22;18929;48.008;10.882;2023-05-08T01:36:40;18.00;99.90
32476;DHT22;18929;48.008;10.882;2023-05-08T01:39:12;18.00;99.90
32476;DHT22;18929;48.008;10.882;2023-05-08T01:41:40;17.90;99.90
32476;DHT22;18929;48.008;10.882;2023-05-08T01:44:12;17.90;99.90
32476;DHT22;18929;48.008;10.882;2023-05-08T01:46:41;18.00;99.90
32476;DHT22;18929;48.008;10.882;2023-05-08T01:49:11;18.00;99.90
32476;DHT22;18929;48.008;10.882;2023-05-08T01:51:39;18.00;99.90
32476;DHT22;18929;48.008;10.882;2023-05-08T01:54:08;18.10;99.90
32476;DHT22;18929;48.008;10.882;2023-05-08T01:56:36;18.00;99.90
32476;DHT22;18929;48.008;10.882;2023-05-08T01:59:04;17.90;99.90
32476;DHT22;18929;48.008;10.882;2023-05-08T02:01:32;17.90;99.90
32476;DHT22;18929;48.008;10.882;2023-05-08T02:03:59;18.00;99.90
32476;DHT22;18929;48.008;10.882;2023-05-08T02:06:27;17.90;99.90
32476;DHT22;18929;48.008;10.882;2023-05-08T02:08:55;17.90;99.90
32476;DHT22;18929;48.008;10.882;2023-05-08T02:11:23;17.90;99.90
32476;DHT22;18929;48.008;10.882;2023-05-08T02:13:50;17.80;99.90
32476;DHT22;18929;48.008;10.882;2023-05-08T02:16:18;17.70;99.90
32476;DHT22;18929;48.008;10.882;2023-05-08T02:18:47;17.70;99.90
32476;DHT22;18929;48.008;10.882;2023-05-08T02:21:16;17.70;99.90
32476;DHT22;18929;48.008;10.882;2023-05-08T02:23:45;17.70;99.90
32476;DHT22;18929;48.008;10.882;2023-05-08T02:26:12;17.80;99.90
32476;DHT22;18929;48.008;10.882;2023-05-08T02:28:40;18.00;99.90
32476;DHT22;18929;48.008;10.882;2023-05-08T02:31:07;18.00;99.90
32476;DHT22;18929;48.008;10.882;2023-05-08T02:33:35;17.90;99.90
32476;DHT22;18929;48.008;10.882;2023-05-08T02:36:03;17.80;99.90
32476;DHT22;18929;48.008;10.882;2023-05-08T02:38:30;17.70;99.90
32476;DHT22;18929;48.008;10.882;2023-05-08T02:40:59;17.50;99.90
32476;DHT22;18929;48.008;10.882;2023-05-08T02:43:28;17.50;99.90
32476;DHT22;18929;48.008;10.882;2023-05-08T02:45:57;17.40;99.90
32476;DHT22;18929;48.008;10.882;2023-05-08T02:48:25;17.40;99.90
32476;DHT22;18929;48.008;10.882;2023-05-08T02:50:56;17.40;99.90
32476;DHT22;18929;48.008;10.882;2023-05-08T02:53:25;17.50;99.90
32476;DHT22;18929;48.008;10.882;2023-05-08T02:56:00;17.50;99.90
32476;DHT22;18929;48.008;10.882;2023-05-08T02:58:30;17.40;99.90
32476;DHT22;18929;48.008;10.882;2023-05-08T03:01:02;17.40;99.90
32476;DHT22;18929;48.008;10.882;2023-05-08T03:03:31;17.50;99.90
32476;DHT22;18929;48.008;10.882;2023-05-08T03:06:01;17.40;99.90
32476;DHT22;18929;48.008;10.882;2023-05-08T03:08:29;17.40;99.90
32476;DHT22;18929;48.008;10.882;2023-05-08T03:10:58;17.40;99.90
32476;DHT22;18929;48.008;10.882;2023-05-08T03:13:27;17.40;99.90
32476;DHT22;18929;48.008;10.882;2023-05-08T03:15:56;17.40;99.90
32476;DHT22;18929;48.008;10.882;2023-05-08T03:18:24;17.40;99.90
32476;DHT22;18929;48.008;10.882;2023-05-08T03:20:54;17.30;99.90
32476;DHT22;18929;48.008;10.882;2023-05-08T03:23:23;17.20;99.90
32476;DHT22;18929;48.008;10.882;2023-05-08T03:25:51;17.30;99.90
32476;DHT22;18929;48.008;10.882;2023-05-08T03:28:19;17.30;99.90
32476;DHT22;18929;48.008;10.882;2023-05-08T03:30:48;17.30;99.90
32476;DHT22;18929;48.008;10.882;2023-05-08T03:33:16;17.30;99.90
32476;DHT22;18929;48.008;10.882;2023-05-08T03:35:43;17.30;99.90
32476;DHT22;18929;48.008;10.882;2023-05-08T03:38:10;17.40;99.90
32476;DHT22;18929;48.008;10.882;2023-05-08T03:40:37;17.40;99.90
32476;DHT22;18929;48.008;10.882;2023-05-08T03:43:06;17.40;99.90
32476;DHT22;18929;48.008;10.882;2023-05-08T03:45:33;17.40;99.90
32476;DHT22;18929;48.008;10.882;2023-05-08T03:48:02;17.40;99.90
32476;DHT22;18929;48.008;10.882;2023-05-08T03:50:29;17.30;99.90
32476;DHT22;18929;48.008;10.882;2023-05-08T03:52:56;17.20;99.90
32476;DHT22;18929;48.008;10.882;2023-05-08T03:55:23;17.20;99.90
32476;DHT22;18929;48.008;10.882;2023-05-08T03:57:54;17.10;99.90
32476;DHT22;18929;48.008;10.882;2023-05-08T04:00:24;17.10;99.90
32476;DHT22;18929;48.008;10.882;2023-05-08T04:02:55;17.10;99.90
32476;DHT22;18929;48.008;10.882;2023-05-08T04:05:25;17.10;99.90
32476;DHT22;18929;48.008;10.882;2023-05-08T04:07:55;17.00;99.90
32476;DHT22;18929;48.008;10.882;2023-05-08T04:10:23;17.00;99.90
32476;DHT22;18929;48.008;10.882;2023-05-08T04:12:55;17.00;99.90
32476;DHT22;18929;48.008;10.882;2023-05-08T04:15:24;17.10;99.90
32476;DHT22;18929;48.008;10.882;2023-05-08T04:17:52;17.10;99.90
32476;DHT22;18929;48.008;10.882;2023-05-08T04:20:21;17.20;99.90
32476;DHT22;18929;48.008;10.882;2023-05-08T04:22:51;17.30;99.90
32476;DHT22;18929;48.008;10.882;2023-05-08T04:25:34;17.30;99.90
32476;DHT22;18929;48.008;10.882;2023-05-08T04:30:33;17.00;99.90
32476;DHT22;18929;48.008;10.882;2023-05-08T04:35:32;17.10;99.90
32476;DHT22;18929;48.008;10.882;2023-05-08T04:38:00;17.10;99.90
32476;DHT22;18929;48.008;10.882;2023-05-08T04:40:27;17.00;99.90
32476;DHT22;18929;48.008;10.882;2023-05-08T04:42:54;17.00;99.90
32476;DHT22;18929;48.008;10.882;2023-05-08T04:45:21;17.00;99.90
32476;DHT22;18929;48.008;10.882;2023-05-08T04:47:48;16.90;99.90
32476;DHT22;18929;48.008;10.882;2023-05-08T04:50:15;17.00;99.90
32476;DHT22;18929;48.008;10.882;2023-05-08T04:52:42;17.00;99.90
32476;DHT22;18929;48.008;10.882;2023-05-08T04:55:10;16.80;99.90
32476;DHT22;18929;48.008;10.882;2023-05-08T04:57:38;16.80;99.90
32476;DHT22;18929;48.008;10.882;2023-05-08T05:00:06;16.70;99.90
32476;DHT22;18929;48.008;10.882;2023-05-08T05:02:33;16.70;99.90
32476;DHT22;18929;48.008;10.882;2023-05-08T05:05:00;16.70;99.90
32476;DHT22;18929;48.008;10.882;2023-05-08T05:07:27;16.80;99.90
32476;DHT22;18929;48.008;10.882;2023-05-08T05:09:53;16.80;99.90
32476;DHT22;18929;48.008;10.882;2023-05-08T05:12:22;16.70;99.90
32476;DHT22;18929;48.008;10.882;2023-05-08T05:14:49;16.80;99.90
32476;DHT22;18929;48.008;10.882;2023-05-08T05:17:15;16.90;99.90
32476;DHT22;18929;48.008;10.882;2023-05-08T05:19:42;17.10;99.90
32476;DHT22;18929;48.008;10.882;2023-05-08T05:25:11;16.80;99.90
32476;DHT22;18929;48.008;10.882;2023-05-08T05:27:40;16.70;99.90
32476;DHT22;18929;48.008;10.882;2023-05-08T05:30:07;16.50;99.90
32476;DHT22;18929;48.008;10.882;2023-05-08T05:32:33;16.50;99.90
32476;DHT22;18929;48.008;10.882;2023-05-08T05:35:00;16.50;99.90
32476;DHT22;18929;48.008;10.882;2023-05-08T05:37:27;16.70;99.90
32476;DHT22;18929;48.008;10.882;2023-05-08T05:39:54;16.90;99.90
32476;DHT22;18929;48.008;10.882;2023-05-08T05:42:21;17.00;99.90
32476;DHT22;18929;48.008;10.882;2023-05-08T05:44:49;16.90;99.90
32476;DHT22;18929;48.008;10.882;2023-05-08T05:47:16;16.60;99.90
32476;DHT22;18929;48.008;10.882;2023-05-08T05:49:43;16.50;99.90
32476;DHT22;18929;48.008;10.882;2023-05-08T05:52:11;16.60;99.90
32476;DHT22;18929;48.008;10.882;2023-05-08T05:54:38;16.70;99.90
32476;DHT22;18929;48.008;10.882;2023-05-08T05:57:05;16.70;99.90
32476;DHT22;18929;48.008;10.882;2023-05-08T05:59:32;16.80;99.90
32476;DHT22;18929;48.008;10.882;2023-05-08T06:02:00;16.80;99.90
32476;DHT22;18929;48.008;10.882;2023-05-08T06:04:27;16.80;99.90
32476;DHT22;18929;48.008;10.882;2023-05-08T06:06:54;16.80;99.90
32476;DHT22;18929;48.008;10.882;2023-05-08T06:09:21;16.80;99.90
32476;DHT22;18929;48.008;10.882;2023-05-08T06:11:48;16.70;99.90
32476;DHT22;18929;48.008;10.882;2023-05-08T06:14:15;16.70;99.90
32476;DHT22;18929;48.008;10.882;2023-05-08T06:16:41;16.80;99.90
32476;DHT22;18929;48.008;10.882;2023-05-08T06:19:10;16.80;99.90
32476;DHT22;18929;48.008;10.882;2023-05-08T06:21:37;16.80;99.90
32476;DHT22;18929;48.008;10.882;2023-05-08T06:24:05;16.80;99.90
32476;DHT22;18929;48.008;10.882;2023-05-08T06:26:32;16.70;99.90
32476;DHT22;18929;48.008;10.882;2023-05-08T06:28:59;16.70;99.90
32476;DHT22;18929;48.008;10.882;2023-05-08T06:31:25;16.60;99.90
32476;DHT22;18929;48.008;10.882;2023-05-08T06:33:52;16.60;99.90
32476;DHT22;18929;48.008;10.882;2023-05-08T06:36:20;16.60;99.90
32476;DHT22;18929;48.008;10.882;2023-05-08T06:38:47;16.60;99.90
32476;DHT22;18929;48.008;10.882;2023-05-08T06:41:14;16.60;99.90
32476;DHT22;18929;48.008;10.882;2023-05-08T06:43:41;16.60;99.90
32476;DHT22;18929;48.008;10.882;2023-05-08T06:46:08;16.50;99.90
32476;DHT22;18929;48.008;10.882;2023-05-08T06:48:34;16.50;99.90
32476;DHT22;18929;48.008;10.882;2023-05-08T06:51:01;16.40;99.90
32476;DHT22;18929;48.008;10.882;2023-05-08T06:53:30;16.40;99.90
32476;DHT22;18929;48.008;10.882;2023-05-08T06:55:57;16.50;99.90
32476;DHT22;18929;48.008;10.882;2023-05-08T06:58:24;16.40;99.90
32476;DHT22;18929;48.008;10.882;2023-05-08T07:00:51;16.30;99.90
32476;DHT22;18929;48.008;10.882;2023-05-08T07:03:17;16.20;99.90
32476;DHT22;18929;48.008;10.882;2023-05-08T07:05:44;16.50;99.90
32476;DHT22;18929;48.008;10.882;2023-05-08T07:08:11;16.60;99.90
32476;DHT22;18929;48.008;10.882;2023-05-08T07:10:39;16.70;99.90
32476;DHT22;18929;48.008;10.882;2023-05-08T07:13:06;16.60;99.90
32476;DHT22;18929;48.008;10.882;2023-05-08T07:15:32;16.50;99.90
32476;DHT22;18929;48.008;10.882;2023-05-08T07:17:59;16.70;99.90
32476;DHT22;18929;48.008;10.882;2023-05-08T07:20:26;16.90;99.90
32476;DHT22;18929;48.008;10.882;2023-05-08T07:22:53;16.80;99.90
32476;DHT22;18929;48.008;10.882;2023-05-08T07:25:20;16.50;99.90
32476;DHT22;18929;48.008;10.882;2023-05-08T07:27:48;16.30;99.90
32476;DHT22;18929;48.008;10.882;2023-05-08T07:30:15;16.30;99.90
32476;DHT22;18929;48.008;10.882;2023-05-08T07:32:42;16.30;99.90
32476;DHT22;18929;48.008;10.882;2023-05-08T07:35:08;16.30;99.90
32476;DHT22;18929;48.008;10.882;2023-05-08T07:37:38;16.50;99.90
32476;DHT22;18929;48.008;10.882;2023-05-08T07:40:05;16.80;99.90
32476;DHT22;18929;48.008;10.882;2023-05-08T07:42:37;16.70;99.90
32476;DHT22;18929;48.008;10.882;2023-05-08T07:45:05;16.60;99.90
32476;DHT22;18929;48.008;10.882;2023-05-08T07:47:32;16.40;99.90
32476;DHT22;18929;48.008;10.882;2023-05-08T07:49:59;16.20;99.90
32476;DHT22;18929;48.008;10.882;2023-05-08T07:52:26;16.10;99.90
32476;DHT22;18929;48.008;10.882;2023-05-08T07:54:53;16.30;99.90
32476;DHT22;18929;48.008;10.882;2023-05-08T07:57:20;16.30;99.90
32476;DHT22;18929;48.008;10.882;2023-05-08T07:59:47;16.20;99.90
32476;DHT22;18929;48.008;10.882;2023-05-08T08:02:15;16.20;99.90
32476;DHT22;18929;48.008;10.882;2023-05-08T08:04:41;16.20;99.90
32476;DHT22;18929;48.008;10.882;2023-05-08T08:07:08;16.30;99.90
32476;DHT22;18929;48.008;10.882;2023-05-08T08:09:35;16.40;99.90
32476;DHT22;18929;48.008;10.882;2023-05-08T08:12:02;16.40;99.90
32476;DHT22;18929;48.008;10.882;2023-05-08T08:14:29;16.40;99.90
32476;DHT22;18929;48.008;10.882;2023-05-08T08:19:43;16.60;99.90
32476;DHT22;18929;48.008;10.882;2023-05-08T08:22:10;16.40;99.90
32476;DHT22;18929;48.008;10.882;2023-05-08T08:24:37;16.40;99.90
32476;DHT22;18929;48.008;10.882;2023-05-08T08:27:03;16.50;99.90
32476;DHT22;18929;48.008;10.882;2023-05-08T08:29:30;16.60;99.90
32476;DHT22;18929;48.008;10.882;2023-05-08T08:31:57;16.50;99.90
32476;DHT22;18929;48.008;10.882;2023-05-08T08:34:25;16.40;99.90
32476;DHT22;18929;48.008;10.882;2023-05-08T08:36:53;16.40;99.90
32476;DHT22;18929;48.008;10.882;2023-05-08T08:39:20;16.50;99.90
32476;DHT22;18929;48.008;10.882;2023-05-08T08:41:47;16.50;99.90
32476;DHT22;18929;48.008;10.882;2023-05-08T08:44:13;16.60;99.90
32476;DHT22;18929;48.008;10.882;2023-05-08T08:46:43;16.50;99.90
32476;DHT22;18929;48.008;10.882;2023-05-08T08:49:10;16.60;99.90
32476;DHT22;18929;48.008;10.882;2023-05-08T08:51:41;16.60;99.90
32476;DHT22;18929;48.008;10.882;2023-05-08T08:54:11;16.70;99.90
32476;DHT22;18929;48.008;10.882;2023-05-08T08:56:38;16.60;99.90
32476;DHT22;18929;48.008;10.882;2023-05-08T08:59:07;16.80;99.90
32476;DHT22;18929;48.008;10.882;2023-05-08T09:01:35;16.70;99.90
32476;DHT22;18929;48.008;10.882;2023-05-08T09:04:04;16.80;99.90
32476;DHT22;18929;48.008;10.882;2023-05-08T09:06:32;17.10;99.90
32476;DHT22;18929;48.008;10.882;2023-05-08T09:09:00;17.10;99.90
32476;DHT22;18929;48.008;10.882;2023-05-08T09:11:29;17.40;99.90
32476;DHT22;18929;48.008;10.882;2023-05-08T09:13:56;17.70;99.90
32476;DHT22;18929;48.008;10.882;2023-05-08T09:16:24;17.30;99.90
32476;DHT22;18929;48.008;10.882;2023-05-08T09:18:53;17.00;99.90
32476;DHT22;18929;48.008;10.882;2023-05-08T09:21:20;17.10;99.90
32476;DHT22;18929;48.008;10.882;2023-05-08T09:23:54;16.90;99.90
32476;DHT22;18929;48.008;10.882;2023-05-08T09:26:30;16.80;99.90
32476;DHT22;18929;48.008;10.882;2023-05-08T09:29:07;16.80;99.90
32476;DHT22;18929;48.008;10.882;2023-05-08T09:31:35;17.10;99.90
32476;DHT22;18929;48.008;10.882;2023-05-08T09:34:04;17.10;99.90
32476;DHT22;18929;48.008;10.882;2023-05-08T09:36:31;17.20;99.90
32476;DHT22;18929;48.008;10.882;2023-05-08T09:38:59;17.20;99.90
32476;DHT22;18929;48.008;10.882;2023-05-08T09:41:26;17.30;99.90
32476;DHT22;18929;48.008;10.882;2023-05-08T09:44:01;17.50;99.90
32476;DHT22;18929;48.008;10.882;2023-05-08T09:46:28;17.30;99.90
32476;DHT22;18929;48.008;10.882;2023-05-08T09:48:56;17.10;99.90
32476;DHT22;18929;48.008;10.882;2023-05-08T09:51:23;16.70;99.90
32476;DHT22;18929;48.008;10.882;2023-05-08T09:53:50;15.90;99.90
32476;DHT22;18929;48.008;10.882;2023-05-08T09:56:28;15.50;99.90
32476;DHT22;18929;48.008;10.882;2023-05-08T09:58:55;15.70;99.90
32476;DHT22;18929;48.008;10.882;2023-05-08T10:01:30;16.10;99.90
32476;DHT22;18929;48.008;10.882;2023-05-08T10:03:57;16.50;99.90
32476;DHT22;18929;48.008;10.882;2023-05-08T10:06:24;16.10;99.90
32476;DHT22;18929;48.008;10.882;2023-05-08T10:11:34;15.50;99.90
32476;DHT22;18929;48.008;10.882;2023-05-08T10:14:01;15.30;99.90
32476;DHT22;18929;48.008;10.882;2023-05-08T10:16:29;15.90;99.90
32476;DHT22;18929;48.008;10.882;2023-05-08T10:18:59;16.10;99.90
32476;DHT22;18929;48.008;10.882;2023-05-08T10:21:27;16.40;99.90
32476;DHT22;18929;48.008;10.882;2023-05-08T10:23:55;15.90;99.90
32476;DHT22;18929;48.008;10.882;2023-05-08T10:26:24;15.50;99.90
32476;DHT22;18929;48.008;10.882;2023-05-08T10:28:54;15.30;99.90
32476;DHT22;18929;48.008;10.882;2023-05-08T10:31:21;15.20;99.90
32476;DHT22;18929;48.008;10.882;2023-05-08T10:33:51;15.70;99.90
32476;DHT22;18929;48.008;10.882;2023-05-08T10:36:20;15.70;99.90
32476;DHT22;18929;48.008;10.882;2023-05-08T10:38:47;15.80;99.90
32476;DHT22;18929;48.008;10.882;2023-05-08T10:41:15;15.70;99.90
32476;DHT22;18929;48.008;10.882;2023-05-08T10:43:42;15.70;99.90
32476;DHT22;18929;48.008;10.882;2023-05-08T10:46:10;15.80;99.90
32476;DHT22;18929;48.008;10.882;2023-05-08T10:48:43;16.20;99.90
32476;DHT22;18929;48.008;10.882;2023-05-08T10:51:15;16.10;99.90
32476;DHT22;18929;48.008;10.882;2023-05-08T10:53:45;16.00;99.90
32476;DHT22;18929;48.008;10.882;2023-05-08T10:56:15;16.10;99.90
32476;DHT22;18929;48.008;10.882;2023-05-08T10:58:42;15.60;99.90
32476;DHT22;18929;48.008;10.882;2023-05-08T11:01:10;16.20;99.90
32476;DHT22;18929;48.008;10.882;2023-05-08T11:03:37;15.60;99.90
32476;DHT22;18929;48.008;10.882;2023-05-08T11:06:04;16.20;99.90
32476;DHT22;18929;48.008;10.882;2023-05-08T11:08:33;15.60;99.90
32476;DHT22;18929;48.008;10.882;2023-05-08T11:11:09;15.80;99.90
32476;DHT22;18929;48.008;10.882;2023-05-08T11:13:40;15.20;99.90
32476;DHT22;18929;48.008;10.882;2023-05-08T11:16:08;15.00;99.90
32476;DHT22;18929;48.008;10.882;2023-05-08T11:18:35;15.20;99.90
32476;DHT22;18929;48.008;10.882;2023-05-08T11:21:02;15.50;99.90
32476;DHT22;18929;48.008;10.882;2023-05-08T11:23:30;15.90;99.90
32476;DHT22;18929;48.008;10.882;2023-05-08T11:25:59;16.10;99.90
32476;DHT22;18929;48.008;10.882;2023-05-08T11:28:27;15.90;99.90
32476;DHT22;18929;48.008;10.882;2023-05-08T11:30:54;16.40;99.90
32476;DHT22;18929;48.008;10.882;2023-05-08T11:33:21;16.60;99.90
32476;DHT22;18929;48.008;10.882;2023-05-08T11:35:49;16.10;99.90
32476;DHT22;18929;48.008;10.882;2023-05-08T11:38:17;16.10;99.90
32476;DHT22;18929;48.008;10.882;2023-05-08T11:40:45;16.20;99.90
32476;DHT22;18929;48.008;10.882;2023-05-08T11:43:24;15.90;99.90
32476;DHT22;18929;48.008;10.882;2023-05-08T11:45:51;16.30;99.90
32476;DHT22;18929;48.008;10.882;2023-05-08T11:48:18;16.80;99.90
32476;DHT22;18929;48.008;10.882;2023-05-08T11:50:45;16.60;99.90
32476;DHT22;18929;48.008;10.882;2023-05-08T11:53:12;16.40;99.90
32476;DHT22;18929;48.008;10.882;2023-05-08T11:55:39;16.40;99.90
32476;DHT22;18929;48.008;10.882;2023-05-08T11:58:10;15.60;99.90
32476;DHT22;18929;48.008;10.882;2023-05-08T12:00:40;16.10;99.90
32476;DHT22;18929;48.008;10.882;2023-05-08T12:03:10;15.90;99.90
32476;DHT22;18929;48.008;10.882;2023-05-08T12:05:37;16.40;99.90
32476;DHT22;18929;48.008;10.882;2023-05-08T12:08:04;16.10;99.90
32476;DHT22;18929;48.008;10.882;2023-05-08T12:10:31;16.00;99.90
32476;DHT22;18929;48.008;10.882;2023-05-08T12:12:58;16.60;99.90
32476;DHT22;18929;48.008;10.882;2023-05-08T12:15:24;16.60;99.90
32476;DHT22;18929;48.008;10.882;2023-05-08T12:18:00;16.10;99.90
32476;DHT22;18929;48.008;10.882;2023-05-08T12:20:27;16.80;99.90
32476;DHT22;18929;48.008;10.882;2023-05-08T12:22:54;16.80;99.90
32476;DHT22;18929;48.008;10.882;2023-05-08T12:25:21;16.40;99.90
32476;DHT22;18929;48.008;10.882;2023-05-08T12:27:48;16.30;99.90
32476;DHT22;18929;48.008;10.882;2023-05-08T12:30:14;16.70;99.90
32476;DHT22;18929;48.008;10.882;2023-05-08T12:32:42;16.20;99.90
32476;DHT22;18929;48.008;10.882;2023-05-08T12:35:10;16.10;99.90
32476;DHT22;18929;48.008;10.882;2023-05-08T12:37:37;16.90;99.90
32476;DHT22;18929;48.008;10.882;2023-05-08T12:40:05;17.00;99.90
32476;DHT22;18929;48.008;10.882;2023-05-08T12:42:42;16.50;99.90
32476;DHT22;18929;48.008;10.882;2023-05-08T12:45:15;16.60;99.90
32476;DHT22;18929;48.008;10.882;2023-05-08T12:47:43;15.90;99.90
32476;DHT22;18929;48.008;10.882;2023-05-08T12:50:12;16.20;99.90
32476;DHT22;18929;48.008;10.882;2023-05-08T12:52:39;16.40;99.90
32476;DHT22;18929;48.008;10.882;2023-05-08T12:55:18;16.50;99.90
32476;DHT22;18929;48.008;10.882;2023-05-08T12:57:45;17.00;99.90
32476;DHT22;18929;48.008;10.882;2023-05-08T13:00:14;16.80;99.90
32476;DHT22;18929;48.008;10.882;2023-05-08T13:02:49;15.90;99.90
32476;DHT22;18929;48.008;10.882;2023-05-08T13:05:19;16.00;99.90
32476;DHT22;18929;48.008;10.882;2023-05-08T13:07:45;16.00;99.90
32476;DHT22;18929;48.008;10.882;2023-05-08T13:10:12;16.20;99.90
32476;DHT22;18929;48.008;10.882;2023-05-08T13:12:40;17.30;99.90
32476;DHT22;18929;48.008;10.882;2023-05-08T13:15:07;17.70;99.90
32476;DHT22;18929;48.008;10.882;2023-05-08T13:17:35;18.20;99.90
32476;DHT22;18929;48.008;10.882;2023-05-08T13:20:01;17.40;99.90
32476;DHT22;18929;48.008;10.882;2023-05-08T13:22:30;17.70;99.90
32476;DHT22;18929;48.008;10.882;2023-05-08T13:24:57;17.20;99.90
32476;DHT22;18929;48.008;10.882;2023-05-08T13:27:24;17.40;99.90
32476;DHT22;18929;48.008;10.882;2023-05-08T13:29:50;18.50;99.90
32476;DHT22;18929;48.008;10.882;2023-05-08T13:32:17;18.00;99.90
32476;DHT22;18929;48.008;10.882;2023-05-08T13:34:44;18.40;99.90
32476;DHT22;18929;48.008;10.882;2023-05-08T13:37:11;17.70;99.90
32476;DHT22;18929;48.008;10.882;2023-05-08T13:39:39;17.50;99.90
32476;DHT22;18929;48.008;10.882;2023-05-08T13:42:06;17.00;99.90
32476;DHT22;18929;48.008;10.882;2023-05-08T13:44:33;17.10;99.90
32476;DHT22;18929;48.008;10.882;2023-05-08T13:46:59;18.40;99.90
32476;DHT22;18929;48.008;10.882;2023-05-08T13:49:26;17.60;99.90
32476;DHT22;18929;48.008;10.882;2023-05-08T13:51:53;16.60;99.90
32476;DHT22;18929;48.008;10.882;2023-05-08T13:54:20;17.10;99.90
32476;DHT22;18929;48.008;10.882;2023-05-08T13:56:48;18.00;99.90
32476;DHT22;18929;48.008;10.882;2023-05-08T13:59:14;17.90;99.90
32476;DHT22;18929;48.008;10.882;2023-05-08T14:01:41;18.60;99.90
32476;DHT22;18929;48.008;10.882;2023-05-08T14:04:08;18.70;99.90
32476;DHT22;18929;48.008;10.882;2023-05-08T14:06:35;19.10;99.90
32476;DHT22;18929;48.008;10.882;2023-05-08T14:09:01;18.00;99.90
32476;DHT22;18929;48.008;10.882;2023-05-08T14:11:28;18.00;99.90
32476;DHT22;18929;48.008;10.882;2023-05-08T14:13:57;16.80;99.90
32476;DHT22;18929;48.008;10.882;2023-05-08T14:16:23;17.50;99.90
32476;DHT22;18929;48.008;10.882;2023-05-08T14:18:50;17.50;99.90
32476;DHT22;18929;48.008;10.882;2023-05-08T14:21:17;18.10;99.90
32476;DHT22;18929;48.008;10.882;2023-05-08T14:23:43;18.30;99.90
32476;DHT22;18929;48.008;10.882;2023-05-08T14:26:10;17.80;99.90
32476;DHT22;18929;48.008;10.882;2023-05-08T14:28:37;17.30;99.90
32476;DHT22;18929;48.008;10.882;2023-05-08T14:31:05;17.50;99.90
32476;DHT22;18929;48.008;10.882;2023-05-08T14:33:32;18.00;99.90
32476;DHT22;18929;48.008;10.882;2023-05-08T14:35:59;18.60;99.90
32476;DHT22;18929;48.008;10.882;2023-05-08T14:38:25;18.80;99.90
32476;DHT22;18929;48.008;10.882;2023-05-08T14:40:52;17.30;99.90
32476;DHT22;18929;48.008;10.882;2023-05-08T14:43:19;17.20;99.90
32476;DHT22;18929;48.008;10.882;2023-05-08T14:45:46;16.70;99.90
32476;DHT22;18929;48.008;10.882;2023-05-08T14:48:14;17.40;99.90
32476;DHT22;18929;48.008;10.882;2023-05-08T14:50:41;17.70;99.90
32476;DHT22;18929;48.008;10.882;2023-05-08T14:53:08;17.90;99.90
32476;DHT22;18929;48.008;10.882;2023-05-08T14:55:35;18.80;99.90
32476;DHT22;18929;48.008;10.882;2023-05-08T14:58:02;19.30;99.90
32476;DHT22;18929;48.008;10.882;2023-05-08T15:00:29;19.10;99.90
32476;DHT22;18929;48.008;10.882;2023-05-08T15:05:53;19.00;99.90
32476;DHT22;18929;48.008;10.882;2023-05-08T15:08:20;18.00;99.90
32476;DHT22;18929;48.008;10.882;2023-05-08T15:10:47;18.10;99.90
32476;DHT22;18929;48.008;10.882;2023-05-08T15:13:14;18.60;99.90
32476;DHT22;18929;48.008;10.882;2023-05-08T15:15:40;18.10;99.90
32476;DHT22;18929;48.008;10.882;2023-05-08T15:18:07;17.70;99.90
32476;DHT22;18929;48.008;10.882;2023-05-08T15:20:34;18.70;99.90
32476;DHT22;18929;48.008;10.882;2023-05-08T15:23:02;18.70;99.90
32476;DHT22;18929;48.008;10.882;2023-05-08T15:25:30;17.10;99.90
32476;DHT22;18929;48.008;10.882;2023-05-08T15:28:00;17.90;99.90
32476;DHT22;18929;48.008;10.882;2023-05-08T15:30:27;18.80;99.90
32476;DHT22;18929;48.008;10.882;2023-05-08T15:32:54;18.20;99.90
32476;DHT22;18929;48.008;10.882;2023-05-08T15:35:21;17.90;99.90
32476;DHT22;18929;48.008;10.882;2023-05-08T15:37:47;17.70;99.90
32476;DHT22;18929;48.008;10.882;2023-05-08T15:40:15;18.20;99.90